Cool, California
Current Conditions -  °F | °C
As of 9:15 AM on Sunday 21 Dec 2014 (Local Time) from KAUN Reporting Station
Overcast Overcast  
Wind Chill: 54°   Ceiling: 800
Heat Index: 54°   Visibility: 10mi
Dew Point: 54°   Wind: 6mph
Humidity: 100%   Direction: 150°SSE
Pressure: 30.3"   Gusts: NA
Location:  38.91°N, 120.97°W
Report Text: KAUN 211715Z AUTO 15005KT 10SM OVC008 12/12 A3030 RMK AO1
Loading
Personal Weather Stations






























Interactive Weather Map New forecast layout! Learn more

10-Day Weather Forecast

Advertisements
Track Severe Weather on mobile